createdAt,value
2019-02-24T00:00:30.340Z,3.90
2019-02-24T00:02:59.348Z,3.80
2019-02-24T00:05:28.284Z,3.70
2019-02-24T00:07:57.176Z,3.70
2019-02-24T00:10:26.056Z,3.70
2019-02-24T00:12:55.136Z,3.80
2019-02-24T00:15:24.127Z,3.90
2019-02-24T00:17:53.120Z,3.90
2019-02-24T00:20:22.024Z,3.90
2019-02-24T00:22:51.044Z,3.90
2019-02-24T00:25:19.856Z,3.90
2019-02-24T00:27:49.012Z,4.00
2019-02-24T00:30:17.990Z,4.00
2019-02-24T00:32:46.908Z,4.00
2019-02-24T00:35:15.741Z,4.00
2019-02-24T00:37:44.980Z,4.10
2019-02-24T00:40:13.875Z,4.00
2019-02-24T00:42:42.781Z,4.00
2019-02-24T00:45:11.714Z,3.90
2019-02-24T00:47:40.529Z,3.80
2019-02-24T00:50:09.536Z,3.70
2019-02-24T00:52:38.396Z,3.70
2019-02-24T00:55:07.360Z,3.70
2019-02-24T00:57:36.348Z,3.50
2019-02-24T01:00:05.981Z,3.50
2019-02-24T01:02:34.952Z,3.40
2019-02-24T01:05:04.396Z,3.40
2019-02-24T01:07:33.316Z,3.30
2019-02-24T01:10:02.295Z,3.30
2019-02-24T01:12:31.696Z,3.30
2019-02-24T01:15:00.508Z,3.10
2019-02-24T01:17:29.416Z,3.10
2019-02-24T01:19:58.235Z,3.20
2019-02-24T01:22:27.051Z,3.20
2019-02-24T01:24:55.976Z,3.20
2019-02-24T01:27:24.818Z,3.30
2019-02-24T01:29:53.702Z,3.30
2019-02-24T01:32:22.672Z,3.30
2019-02-24T01:34:51.506Z,3.30
2019-02-24T01:37:20.361Z,3.30
2019-02-24T01:39:49.197Z,3.30
2019-02-24T01:42:18.235Z,3.30
2019-02-24T01:44:47.152Z,3.30
2019-02-24T01:47:15.970Z,3.30
2019-02-24T01:49:44.876Z,3.30
2019-02-24T01:52:13.840Z,3.30
2019-02-24T01:54:42.693Z,3.30
2019-02-24T01:57:11.572Z,3.30
2019-02-24T01:59:40.489Z,3.30
2019-02-24T02:02:09.396Z,3.30
2019-02-24T02:04:38.328Z,3.20
2019-02-24T02:07:07.224Z,3.20
2019-02-24T02:09:36.008Z,3.20
2019-02-24T02:12:05.037Z,3.20
2019-02-24T02:14:33.936Z,3.20
2019-02-24T02:17:02.867Z,3.20
2019-02-24T02:19:31.792Z,3.20
2019-02-24T02:22:00.714Z,3.10
2019-02-24T02:24:29.612Z,3.10
2019-02-24T02:26:58.408Z,3.10
2019-02-24T02:29:27.283Z,3.10
2019-02-24T02:31:56.588Z,3.10
2019-02-24T02:34:25.473Z,3.00
2019-02-24T02:36:54.370Z,3.00
2019-02-24T02:39:23.148Z,3.00
2019-02-24T02:41:52.061Z,3.00
2019-02-24T02:44:20.984Z,3.00
2019-02-24T02:46:50.074Z,3.00
2019-02-24T02:49:19.003Z,3.00
2019-02-24T02:51:47.803Z,3.00
2019-02-24T02:54:17.101Z,2.90
2019-02-24T02:56:46.015Z,2.90
2019-02-24T02:59:14.922Z,2.90
2019-02-24T03:01:43.856Z,2.90
2019-02-24T03:04:12.738Z,2.90
2019-02-24T03:06:46.757Z,2.80
2019-02-24T03:09:15.618Z,2.70
2019-02-24T03:11:44.588Z,2.70
2019-02-24T03:14:13.426Z,2.80
2019-02-24T03:16:42.420Z,2.80
2019-02-24T03:19:11.372Z,2.80
2019-02-24T03:21:40.194Z,2.70
2019-02-24T03:24:09.080Z,2.80
2019-02-24T03:26:37.997Z,2.70
2019-02-24T03:29:06.966Z,2.80
2019-02-24T03:31:35.789Z,2.70
2019-02-24T03:34:04.778Z,2.70
2019-02-24T03:36:33.602Z,2.70
2019-02-24T03:39:02.458Z,2.60
2019-02-24T03:41:31.770Z,2.70
2019-02-24T03:44:00.648Z,2.70
2019-02-24T03:46:29.613Z,2.70
2019-02-24T03:48:58.599Z,2.60
2019-02-24T03:51:27.484Z,2.60
2019-02-24T03:53:56.472Z,2.60
2019-02-24T03:56:25.762Z,2.60
2019-02-24T03:58:55.276Z,2.60
2019-02-24T04:01:24.144Z,2.60
2019-02-24T04:03:53.251Z,2.60
2019-02-24T04:06:22.084Z,2.60
2019-02-24T04:08:51.048Z,2.50
2019-02-24T04:11:19.877Z,2.60
2019-02-24T04:13:48.848Z,2.50
2019-02-24T04:16:17.722Z,2.50
2019-02-24T04:18:46.548Z,2.50
2019-02-24T04:21:15.488Z,2.40
2019-02-24T04:23:44.296Z,2.40
2019-02-24T04:26:13.471Z,2.50
2019-02-24T04:28:42.455Z,2.50
2019-02-24T04:31:11.548Z,2.60
2019-02-24T04:33:40.441Z,2.60
2019-02-24T04:36:09.273Z,2.60
2019-02-24T04:38:38.066Z,2.50
2019-02-24T04:41:06.867Z,2.50
2019-02-24T04:43:35.668Z,2.50
2019-02-24T04:46:04.508Z,2.40
2019-02-24T04:48:33.340Z,2.40
2019-02-24T04:51:02.207Z,2.40
2019-02-24T04:53:31.172Z,2.40
2019-02-24T04:56:00.250Z,2.40
2019-02-24T04:58:29.294Z,2.40
2019-02-24T05:00:58.100Z,2.40
2019-02-24T05:03:26.931Z,2.40
2019-02-24T05:05:55.820Z,2.30
2019-02-24T05:08:24.644Z,2.30
2019-02-24T05:10:53.448Z,2.30
2019-02-24T05:13:22.342Z,2.30
2019-02-24T05:15:51.274Z,2.40
2019-02-24T05:18:20.181Z,2.40
2019-02-24T05:20:49.258Z,2.30
2019-02-24T05:23:18.039Z,2.40
2019-02-24T05:25:46.945Z,2.40
2019-02-24T05:28:15.837Z,2.30
2019-02-24T05:30:44.748Z,2.40
2019-02-24T05:33:13.688Z,2.30
2019-02-24T05:35:42.585Z,2.30
2019-02-24T05:38:11.578Z,2.30
2019-02-24T05:40:40.537Z,2.30
2019-02-24T05:43:09.443Z,2.30
2019-02-24T05:45:38.315Z,2.30
2019-02-24T05:48:07.240Z,2.30
2019-02-24T05:50:36.237Z,2.30
2019-02-24T05:53:05.224Z,2.30
2019-02-24T05:55:34.122Z,2.30
2019-02-24T05:58:03.115Z,2.20
2019-02-24T06:00:32.227Z,2.20
2019-02-24T06:03:01.087Z,2.20
2019-02-24T06:05:29.974Z,2.10
2019-02-24T06:07:58.784Z,2.10
2019-02-24T06:10:27.570Z,2.10
2019-02-24T06:12:56.337Z,2.10
2019-02-24T06:15:25.186Z,2.10
2019-02-24T06:17:54.323Z,2.10
2019-02-24T06:20:23.140Z,2.10
2019-02-24T06:22:52.032Z,2.10
2019-02-24T06:25:21.070Z,2.10
2019-02-24T06:27:50.088Z,2.10
2019-02-24T06:30:19.092Z,2.10
2019-02-24T06:32:48.077Z,2.10
2019-02-24T06:35:17.036Z,2.10
2019-02-24T06:37:45.940Z,2.10
2019-02-24T06:40:14.813Z,2.10
2019-02-24T06:42:43.776Z,2.10
2019-02-24T06:45:12.692Z,2.10
2019-02-24T06:47:41.593Z,2.00
2019-02-24T06:50:10.892Z,2.10
2019-02-24T06:52:39.851Z,2.10
2019-02-24T06:55:09.028Z,2.10
2019-02-24T06:57:38.029Z,2.10
2019-02-24T07:00:13.859Z,2.20
2019-02-24T07:02:38.552Z,2.20
2019-02-24T07:05:07.877Z,2.20
2019-02-24T07:07:36.776Z,2.20
2019-02-24T07:10:06.392Z,2.20
2019-02-24T07:12:35.440Z,2.30
2019-02-24T07:15:04.664Z,2.30
2019-02-24T07:17:33.436Z,2.40
2019-02-24T07:20:02.620Z,2.40
2019-02-24T07:22:31.436Z,2.40
2019-02-24T07:25:00.232Z,2.40
2019-02-24T07:27:29.172Z,2.40
2019-02-24T07:29:58.181Z,2.50
2019-02-24T07:32:27.218Z,2.50
2019-02-24T07:34:56.013Z,2.50
2019-02-24T07:37:24.823Z,2.50
2019-02-24T07:39:53.692Z,2.60
2019-02-24T07:42:22.666Z,2.70
2019-02-24T07:44:51.473Z,2.80
2019-02-24T07:47:20.341Z,2.80
2019-02-24T07:49:49.165Z,2.80
2019-02-24T07:52:18.352Z,2.90
2019-02-24T07:54:47.265Z,2.90
2019-02-24T07:57:16.153Z,3.00
2019-02-24T07:59:45.084Z,3.00
2019-02-24T08:02:13.963Z,3.00
2019-02-24T08:04:42.952Z,3.10
2019-02-24T08:07:11.752Z,3.10
2019-02-24T08:09:41.007Z,3.20
2019-02-24T08:12:10.057Z,3.20
2019-02-24T08:14:39.255Z,3.20
2019-02-24T08:17:08.140Z,3.30
2019-02-24T08:19:37.224Z,3.30
2019-02-24T08:22:06.104Z,3.40
2019-02-24T08:24:35.169Z,3.50
2019-02-24T08:27:04.064Z,3.50
2019-02-24T08:29:32.876Z,3.60
2019-02-24T08:32:01.892Z,3.60
2019-02-24T08:34:30.960Z,3.70
2019-02-24T08:36:59.772Z,3.80
2019-02-24T08:39:28.719Z,3.90
2019-02-24T08:41:57.640Z,4.00
2019-02-24T08:44:26.528Z,4.10
2019-02-24T08:46:55.397Z,4.20
2019-02-24T08:49:24.199Z,4.40
2019-02-24T08:51:53.097Z,4.50
2019-02-24T08:54:21.928Z,4.60
2019-02-24T08:56:50.984Z,4.60
2019-02-24T08:59:19.836Z,4.60
2019-02-24T09:01:48.954Z,4.60
2019-02-24T09:04:17.803Z,4.70
2019-02-24T09:06:46.613Z,4.80
2019-02-24T09:09:15.764Z,5.00
2019-02-24T09:11:44.674Z,5.10
2019-02-24T09:14:13.544Z,5.10
2019-02-24T09:16:42.384Z,5.20
2019-02-24T09:19:11.508Z,5.40
2019-02-24T09:21:40.670Z,5.60
2019-02-24T09:24:09.576Z,5.80
2019-02-24T09:26:38.504Z,6.00
2019-02-24T09:29:07.376Z,6.20
2019-02-24T09:31:36.542Z,6.40
2019-02-24T09:34:05.408Z,6.50
2019-02-24T09:36:34.537Z,6.60
2019-02-24T09:39:04.127Z,6.70
2019-02-24T09:41:32.918Z,6.80
2019-02-24T09:44:01.831Z,7.00
2019-02-24T09:46:30.655Z,6.90
2019-02-24T09:48:59.554Z,7.00
2019-02-24T09:51:28.802Z,7.10
2019-02-24T09:53:57.601Z,7.20
2019-02-24T09:56:26.428Z,7.40
2019-02-24T09:58:55.356Z,7.50
2019-02-24T10:01:24.360Z,7.50
2019-02-24T10:03:53.228Z,7.50
2019-02-24T10:06:22.128Z,7.50
2019-02-24T10:08:51.096Z,7.60
2019-02-24T10:11:19.892Z,7.80
2019-02-24T10:13:48.773Z,8.00
2019-02-24T10:16:17.735Z,8.30
2019-02-24T10:18:46.544Z,8.50
2019-02-24T10:21:15.416Z,8.80
2019-02-24T10:23:44.436Z,9.10
2019-02-24T10:26:13.371Z,9.30
2019-02-24T10:28:42.265Z,9.50
2019-02-24T10:31:19.642Z,9.60
2019-02-24T10:33:41.921Z,9.80
2019-02-24T10:36:10.872Z,10.00
2019-02-24T10:38:39.768Z,10.10
2019-02-24T10:41:08.638Z,10.20
2019-02-24T10:43:37.925Z,10.20
2019-02-24T10:46:07.130Z,10.30
2019-02-24T10:48:35.923Z,10.40
2019-02-24T10:51:04.934Z,10.60
2019-02-24T10:53:34.127Z,10.60
2019-02-24T10:56:03.593Z,10.70
2019-02-24T10:58:34.901Z,10.80
2019-02-24T11:01:03.161Z,10.90
2019-02-24T11:03:32.262Z,11.00
2019-02-24T11:06:01.320Z,11.10
2019-02-24T11:08:30.116Z,11.20
2019-02-24T11:10:59.015Z,11.40
2019-02-24T11:13:27.856Z,11.50
2019-02-24T11:15:56.947Z,11.60
2019-02-24T11:18:25.784Z,11.70
2019-02-24T11:20:54.571Z,11.80
2019-02-24T11:23:23.536Z,11.90
2019-02-24T11:25:52.366Z,12.00
2019-02-24T11:28:21.510Z,12.10
2019-02-24T11:30:50.440Z,12.30
2019-02-24T11:33:19.355Z,12.40
2019-02-24T11:35:48.259Z,12.50
2019-02-24T11:38:17.168Z,12.60
2019-02-24T11:40:46.052Z,12.70
2019-02-24T11:43:15.491Z,12.80
2019-02-24T11:45:44.356Z,12.90
2019-02-24T11:48:13.274Z,13.00
2019-02-24T11:50:42.132Z,13.10
2019-02-24T11:53:10.932Z,13.30
2019-02-24T11:55:39.805Z,13.40
2019-02-24T11:58:09.044Z,13.50
2019-02-24T12:00:37.944Z,13.60
2019-02-24T12:03:06.943Z,13.70
2019-02-24T12:05:35.814Z,13.70
2019-02-24T12:08:04.820Z,13.80
2019-02-24T12:10:33.607Z,13.90
2019-02-24T12:13:02.511Z,14.00
2019-02-24T12:15:31.480Z,14.10
2019-02-24T12:18:00.351Z,14.20
2019-02-24T12:20:29.421Z,14.30
2019-02-24T12:22:58.460Z,14.40
2019-02-24T12:25:27.451Z,14.40
2019-02-24T12:27:56.269Z,14.50
2019-02-24T12:30:25.300Z,14.50
2019-02-24T12:32:54.086Z,14.60
2019-02-24T12:35:23.378Z,14.60
2019-02-24T12:37:52.279Z,14.70
2019-02-24T12:40:21.300Z,14.80
2019-02-24T12:42:50.184Z,14.90
2019-02-24T12:45:19.077Z,14.90
2019-02-24T12:47:48.017Z,15.00
2019-02-24T12:50:17.467Z,15.00
2019-02-24T12:52:46.392Z,15.10
2019-02-24T12:55:15.276Z,15.20
2019-02-24T12:57:44.172Z,15.30
2019-02-24T13:00:16.369Z,15.50
2019-02-24T13:02:45.282Z,15.60
2019-02-24T13:05:14.628Z,15.70
2019-02-24T13:07:43.536Z,15.70
2019-02-24T13:10:13.933Z,15.80
2019-02-24T13:12:43.124Z,15.90
2019-02-24T13:15:12.336Z,16.00
2019-02-24T13:17:41.305Z,16.30
2019-02-24T13:20:10.709Z,16.60
2019-02-24T13:22:39.698Z,16.80
2019-02-24T13:25:09.957Z,17.00
2019-02-24T13:27:39.030Z,17.50
2019-02-24T13:30:08.440Z,18.00
2019-02-24T13:32:37.325Z,18.70
2019-02-24T13:35:06.444Z,19.80
2019-02-24T13:37:35.336Z,21.00
2019-02-24T13:40:04.768Z,22.30
2019-02-24T13:42:33.568Z,23.10
2019-02-24T13:45:02.472Z,23.50
2019-02-24T13:47:31.256Z,24.60
2019-02-24T13:50:00.315Z,24.90
2019-02-24T13:52:29.499Z,24.60
2019-02-24T13:54:58.421Z,25.00
2019-02-24T13:57:27.448Z,25.80
2019-02-24T13:59:56.289Z,25.40
2019-02-24T14:02:25.103Z,26.10
2019-02-24T14:04:53.977Z,26.10
2019-02-24T14:07:22.972Z,25.90
2019-02-24T14:09:51.784Z,25.60
2019-02-24T14:12:20.748Z,25.70
2019-02-24T14:14:49.561Z,25.60
2019-02-24T14:17:18.473Z,25.00
2019-02-24T14:19:47.288Z,24.50
2019-02-24T14:22:16.316Z,24.20
2019-02-24T14:24:45.228Z,23.80
2019-02-24T14:27:14.675Z,23.70
2019-02-24T14:29:43.760Z,23.10
2019-02-24T14:32:12.815Z,22.80
2019-02-24T14:34:42.117Z,22.40
2019-02-24T14:37:10.992Z,22.30
2019-02-24T14:39:39.948Z,22.10
2019-02-24T14:42:09.150Z,21.90
2019-02-24T14:44:40.203Z,21.50
2019-02-24T14:47:11.420Z,21.20
2019-02-24T14:49:40.692Z,21.60
2019-02-24T14:52:09.616Z,21.50
2019-02-24T14:54:38.797Z,21.10
2019-02-24T14:57:07.790Z,20.60
2019-02-24T14:59:36.663Z,20.30
2019-02-24T15:02:05.767Z,20.00
2019-02-24T15:04:34.613Z,19.60
2019-02-24T15:07:03.422Z,19.30
2019-02-24T15:09:32.250Z,19.20
2019-02-24T15:12:01.152Z,19.30
2019-02-24T15:14:30.056Z,19.40
2019-02-24T15:16:58.908Z,19.20
2019-02-24T15:19:27.900Z,19.00
2019-02-24T15:21:56.888Z,18.90
2019-02-24T15:24:25.713Z,18.90
2019-02-24T15:26:54.530Z,18.80
2019-02-24T15:29:23.432Z,18.70
2019-02-24T15:31:52.441Z,18.70
2019-02-24T15:34:21.432Z,18.60
2019-02-24T15:36:50.312Z,18.50
2019-02-24T15:39:19.275Z,18.40
2019-02-24T15:41:48.556Z,18.50
2019-02-24T15:44:17.456Z,18.40
2019-02-24T15:46:46.457Z,18.20
2019-02-24T15:51:57.459Z,18.00
2019-02-24T15:54:26.671Z,17.90
2019-02-24T15:56:55.757Z,17.80
2019-02-24T15:59:24.817Z,17.70
2019-02-24T16:01:53.975Z,17.60
2019-02-24T16:04:23.217Z,17.50
2019-02-24T16:06:52.277Z,17.50
2019-02-24T16:09:21.517Z,17.40
2019-02-24T16:11:54.941Z,17.30
2019-02-24T16:17:57.585Z,17.00
2019-02-24T16:20:26.724Z,17.00
2019-02-24T16:22:55.661Z,16.90
2019-02-24T16:25:24.680Z,16.80
2019-02-24T16:27:56.005Z,16.60
2019-02-24T16:30:25.037Z,16.50
2019-02-24T16:32:53.921Z,16.40
2019-02-24T16:35:22.908Z,16.10
2019-02-24T16:37:51.905Z,16.00
2019-02-24T16:40:20.975Z,15.80
2019-02-24T16:42:50.137Z,15.70
2019-02-24T16:45:19.179Z,15.60
2019-02-24T16:47:48.075Z,15.40
2019-02-24T16:50:17.233Z,15.20
2019-02-24T16:52:46.238Z,15.10
2019-02-24T16:55:15.331Z,15.00
2019-02-24T16:57:44.384Z,14.90
2019-02-24T17:00:15.878Z,14.80
2019-02-24T17:02:44.933Z,14.60
2019-02-24T17:05:14.201Z,14.60
2019-02-24T17:07:43.737Z,14.50
2019-02-24T17:10:14.065Z,14.40
2019-02-24T17:12:43.005Z,14.20
2019-02-24T17:15:12.117Z,14.00
2019-02-24T17:17:41.124Z,13.90
2019-02-24T17:20:12.080Z,13.90
2019-02-24T17:22:41.061Z,13.80
2019-02-24T17:25:10.421Z,13.70
2019-02-24T17:27:39.425Z,13.60
2019-02-24T17:30:09.367Z,13.60
2019-02-24T17:32:38.437Z,13.50
2019-02-24T17:35:07.585Z,13.40
2019-02-24T17:37:37.429Z,13.30
2019-02-24T17:40:07.648Z,13.20
2019-02-24T17:42:36.557Z,13.20
2019-02-24T17:45:06.537Z,13.10
2019-02-24T17:47:35.581Z,12.90
2019-02-24T17:50:05.002Z,12.80
2019-02-24T17:52:33.941Z,12.70
2019-02-24T17:55:02.830Z,12.60
2019-02-24T17:57:31.792Z,12.50
2019-02-24T18:00:00.860Z,12.40
2019-02-24T18:02:37.026Z,12.30
2019-02-24T18:05:07.614Z,12.20
2019-02-24T18:07:36.899Z,12.10
2019-02-24T18:10:06.302Z,12.10
2019-02-24T18:12:35.583Z,12.00
2019-02-24T18:15:05.579Z,12.00
2019-02-24T18:17:34.837Z,11.90
2019-02-24T18:20:04.407Z,11.80
2019-02-24T18:22:33.604Z,11.70
2019-02-24T18:25:03.477Z,11.70
2019-02-24T18:27:33.269Z,11.60
2019-02-24T18:30:02.168Z,11.60
2019-02-24T18:37:42.502Z,11.30
2019-02-24T18:40:12.500Z,11.20
2019-02-24T18:42:41.447Z,11.20
2019-02-24T18:45:10.799Z,11.00
2019-02-24T18:47:39.856Z,10.90
2019-02-24T18:50:09.805Z,10.90
2019-02-24T18:52:38.667Z,10.90
2019-02-24T18:55:08.084Z,10.90
2019-02-24T18:57:37.144Z,10.80
2019-02-24T19:00:07.205Z,10.80
2019-02-24T19:02:36.211Z,10.70
2019-02-24T19:05:05.409Z,10.60
2019-02-24T19:07:35.665Z,10.60
2019-02-24T19:10:05.749Z,10.60
2019-02-24T19:12:34.840Z,10.60
2019-02-24T19:15:04.612Z,10.40
2019-02-24T19:17:33.745Z,10.50
2019-02-24T19:20:02.753Z,10.40
2019-02-24T19:22:31.818Z,10.30
2019-02-24T19:25:00.608Z,10.30
2019-02-24T19:27:29.524Z,10.30
2019-02-24T19:29:58.711Z,10.10
2019-02-24T19:32:27.665Z,10.10
2019-02-24T19:34:56.640Z,10.10
2019-02-24T19:37:30.475Z,10.00
2019-02-24T19:40:06.455Z,10.00
2019-02-24T19:42:47.665Z,10.00
2019-02-24T19:45:18.507Z,9.90
2019-02-24T19:48:07.906Z,9.90
2019-02-24T19:50:38.291Z,9.80
2019-02-24T19:53:07.556Z,9.70
2019-02-24T19:55:36.594Z,9.70
2019-02-24T19:58:05.900Z,9.60
2019-02-24T20:00:35.177Z,9.60
2019-02-24T20:03:04.422Z,9.50
2019-02-24T20:05:35.596Z,9.40
2019-02-24T20:08:04.742Z,9.40
2019-02-24T20:10:33.759Z,9.30
2019-02-24T20:13:02.929Z,9.30
2019-02-24T20:15:35.813Z,9.20
2019-02-24T20:18:04.799Z,9.20
2019-02-24T20:20:33.848Z,9.10
2019-02-24T20:23:02.821Z,9.10
2019-02-24T20:25:31.885Z,9.00
2019-02-24T20:28:10.315Z,9.00
2019-02-24T20:30:39.321Z,8.90
2019-02-24T20:33:08.611Z,8.90
2019-02-24T20:35:37.630Z,8.80
2019-02-24T20:38:06.618Z,8.80
2019-02-24T20:40:35.676Z,8.70
2019-02-24T20:43:04.885Z,8.80
2019-02-24T20:45:33.954Z,8.70
2019-02-24T20:48:03.047Z,8.70
2019-02-24T20:50:32.479Z,8.70
2019-02-24T20:53:01.613Z,8.70
2019-02-24T20:55:30.723Z,8.70
2019-02-24T20:57:59.649Z,8.70
2019-02-24T21:00:31.386Z,8.70
2019-02-24T21:03:01.463Z,8.70
2019-02-24T21:05:31.293Z,8.60
2019-02-24T21:08:00.555Z,8.60
2019-02-24T21:10:29.518Z,8.60
2019-02-24T21:12:58.430Z,8.60
2019-02-24T21:15:27.433Z,8.60
2019-02-24T21:17:56.377Z,8.50
2019-02-24T21:20:26.776Z,8.50
2019-02-24T21:22:55.837Z,8.50
2019-02-24T21:25:24.851Z,8.40
2019-02-24T21:27:53.893Z,8.40
2019-02-24T21:30:23.229Z,8.40
2019-02-24T21:32:52.281Z,8.30
2019-02-24T21:35:21.397Z,8.30
2019-02-24T21:37:50.335Z,8.20
2019-02-24T21:40:19.369Z,8.20
2019-02-24T21:42:48.475Z,8.10
2019-02-24T21:45:18.707Z,8.00
2019-02-24T21:47:47.762Z,8.00
2019-02-24T21:50:16.941Z,7.90
2019-02-24T21:52:46.261Z,7.80
2019-02-24T21:55:15.629Z,7.70
2019-02-24T21:57:45.084Z,7.50
2019-02-24T22:00:16.508Z,7.40
2019-02-24T22:02:45.487Z,7.30
2019-02-24T22:05:14.596Z,7.20
2019-02-24T22:07:43.601Z,7.10
2019-02-24T22:10:12.953Z,7.10
2019-02-24T22:12:41.962Z,7.00
2019-02-24T22:15:13.253Z,7.00
2019-02-24T22:17:42.282Z,6.90
2019-02-24T22:20:11.430Z,6.90
2019-02-24T22:22:40.357Z,6.90
2019-02-24T22:25:10.013Z,6.80
2019-02-24T22:27:39.027Z,6.80
2019-02-24T22:30:09.955Z,6.80
2019-02-24T22:32:39.056Z,6.70
2019-02-24T22:35:08.393Z,6.70
2019-02-24T22:37:37.958Z,6.70
2019-02-24T22:40:08.971Z,6.70
2019-02-24T22:42:37.917Z,6.70
2019-02-24T22:45:11.138Z,6.70
2019-02-24T22:47:40.140Z,6.70
2019-02-24T22:50:09.472Z,6.70
2019-02-24T22:52:38.493Z,6.70
2019-02-24T22:55:07.525Z,6.60
2019-02-24T22:57:36.509Z,6.60
2019-02-24T23:00:12.045Z,6.70
2019-02-24T23:02:41.032Z,6.70
2019-02-24T23:05:11.549Z,6.70
2019-02-24T23:07:40.475Z,6.70
2019-02-24T23:10:10.093Z,6.70
2019-02-24T23:12:39.030Z,6.60
2019-02-24T23:15:08.077Z,6.60
2019-02-24T23:17:37.119Z,6.60
2019-02-24T23:20:06.246Z,6.60
2019-02-24T23:22:35.251Z,6.60
2019-02-24T23:25:04.448Z,6.60
2019-02-24T23:27:33.469Z,6.50
2019-02-24T23:30:02.462Z,6.50
2019-02-24T23:32:31.397Z,6.50
2019-02-24T23:35:00.381Z,6.50
2019-02-24T23:37:29.477Z,6.50
2019-02-24T23:39:58.521Z,6.50
2019-02-24T23:42:27.508Z,6.40
2019-02-24T23:44:56.523Z,6.40
2019-02-24T23:47:25.525Z,6.40
2019-02-24T23:49:54.541Z,6.40
2019-02-24T23:52:23.576Z,6.40
2019-02-24T23:54:52.657Z,6.40
2019-02-24T23:57:21.769Z,6.40
2019-02-24T23:59:50.716Z,6.40
